createdAt,value
2018-12-06T00:01:02.764Z,8.43
2018-12-06T00:03:30.317Z,8.53
2018-12-06T00:05:57.884Z,8.30
2018-12-06T00:08:25.435Z,8.57
2018-12-06T00:10:53.009Z,9.17
2018-12-06T00:13:20.560Z,9.53
2018-12-06T00:15:48.132Z,9.13
2018-12-06T00:18:15.684Z,8.73
2018-12-06T00:20:43.270Z,9.50
2018-12-06T00:23:10.826Z,8.03
2018-12-06T00:25:38.396Z,8.90
2018-12-06T00:28:05.935Z,8.40
2018-12-06T00:30:34.277Z,8.80
2018-12-06T00:33:02.004Z,9.00
2018-12-06T00:35:29.572Z,8.50
2018-12-06T00:37:57.163Z,8.70
2018-12-06T00:40:24.871Z,9.50
2018-12-06T00:42:52.420Z,8.60
2018-12-06T00:45:19.994Z,8.97
2018-12-06T00:47:47.583Z,9.13
2018-12-06T00:50:15.233Z,9.50
2018-12-06T00:52:42.789Z,9.13
2018-12-06T00:55:10.357Z,9.40
2018-12-06T00:57:37.911Z,8.87
2018-12-06T01:00:06.860Z,8.33
2018-12-06T01:02:34.654Z,8.60
2018-12-06T01:05:02.277Z,9.57
2018-12-06T01:07:29.917Z,8.80
2018-12-06T01:09:57.468Z,9.00
2018-12-06T01:12:25.048Z,11.17
2018-12-06T01:14:52.601Z,10.00
2018-12-06T01:17:20.173Z,11.90
2018-12-06T01:19:47.737Z,12.07
2018-12-06T01:22:15.317Z,11.87
2018-12-06T01:24:42.877Z,11.47
2018-12-06T01:27:10.461Z,11.00
2018-12-06T01:29:38.017Z,12.67
2018-12-06T01:32:05.832Z,12.20
2018-12-06T01:34:33.379Z,11.20
2018-12-06T01:37:00.957Z,10.27
2018-12-06T01:39:28.509Z,10.10
2018-12-06T01:41:56.089Z,11.27
2018-12-06T01:44:23.639Z,9.80
2018-12-06T01:46:51.221Z,9.53
2018-12-06T01:49:18.769Z,9.43
2018-12-06T01:51:46.345Z,10.40
2018-12-06T01:54:13.999Z,9.57
2018-12-06T01:56:41.597Z,10.20
2018-12-06T01:59:09.149Z,10.57
2018-12-06T02:01:36.799Z,11.73
2018-12-06T02:04:04.405Z,10.33
2018-12-06T02:06:31.980Z,8.70
2018-12-06T02:08:59.529Z,8.73
2018-12-06T02:11:27.092Z,8.83
2018-12-06T02:13:54.636Z,8.97
2018-12-06T02:16:22.208Z,8.83
2018-12-06T02:18:49.761Z,8.20
2018-12-06T02:21:17.325Z,8.83
2018-12-06T02:23:44.876Z,8.70
2018-12-06T02:26:12.448Z,8.60
2018-12-06T02:28:39.992Z,8.13
2018-12-06T02:31:07.560Z,8.43
2018-12-06T02:33:35.132Z,7.73
2018-12-06T02:36:02.809Z,8.63
2018-12-06T02:38:30.361Z,8.03
2018-12-06T02:40:57.934Z,8.03
2018-12-06T02:43:25.489Z,8.40
2018-12-06T02:45:53.410Z,8.90
2018-12-06T02:48:20.981Z,8.50
2018-12-06T02:50:48.529Z,9.00
2018-12-06T02:53:16.104Z,8.37
2018-12-06T02:55:43.667Z,8.80
2018-12-06T02:58:11.248Z,8.60
2018-12-06T03:00:38.797Z,8.47
2018-12-06T03:03:06.437Z,8.50
2018-12-06T03:05:34.232Z,8.17
2018-12-06T03:08:01.816Z,9.93
2018-12-06T03:10:29.377Z,8.60
2018-12-06T03:12:56.944Z,8.37
2018-12-06T03:15:24.497Z,8.77
2018-12-06T03:17:52.069Z,10.50
2018-12-06T03:20:19.645Z,9.13
2018-12-06T03:22:47.221Z,9.40
2018-12-06T03:25:14.775Z,8.73
2018-12-06T03:27:42.362Z,9.23
2018-12-06T03:30:09.921Z,9.70
2018-12-06T03:32:37.609Z,10.10
2018-12-06T03:35:05.244Z,9.33
2018-12-06T03:37:32.820Z,9.70
2018-12-06T03:40:00.365Z,9.30
2018-12-06T03:42:27.939Z,8.40
2018-12-06T03:44:55.499Z,9.83
2018-12-06T03:47:23.081Z,10.30
2018-12-06T03:49:50.640Z,9.97
2018-12-06T03:52:18.214Z,9.43
2018-12-06T03:54:45.763Z,9.47
2018-12-06T03:57:13.351Z,9.00
2018-12-06T03:59:40.905Z,8.63
2018-12-06T04:02:08.479Z,10.90
2018-12-06T04:04:36.024Z,9.97
2018-12-06T04:07:03.588Z,8.90
2018-12-06T04:09:31.132Z,8.33
2018-12-06T04:11:58.721Z,8.67
2018-12-06T04:14:26.279Z,8.10
2018-12-06T04:16:53.857Z,9.50
2018-12-06T04:19:21.402Z,8.80
2018-12-06T04:21:48.961Z,9.73
2018-12-06T04:24:16.533Z,9.00
2018-12-06T04:26:44.085Z,9.80
2018-12-06T04:29:11.668Z,8.53
2018-12-06T04:31:39.226Z,9.03
2018-12-06T04:34:06.808Z,9.07
2018-12-06T04:36:34.360Z,8.80
2018-12-06T04:39:01.942Z,9.20
2018-12-06T04:41:29.513Z,9.03
2018-12-06T04:43:57.083Z,9.70
2018-12-06T04:46:24.624Z,9.60
2018-12-06T04:48:52.197Z,8.43
2018-12-06T04:51:20.469Z,8.57
2018-12-06T04:53:48.037Z,8.77
2018-12-06T04:56:15.593Z,9.30
2018-12-06T04:58:43.170Z,10.03
2018-12-06T05:01:10.726Z,8.10
2018-12-06T05:03:38.297Z,9.87
2018-12-06T05:06:05.846Z,8.87
2018-12-06T05:08:33.420Z,8.60
2018-12-06T05:11:00.965Z,9.67
2018-12-06T05:13:28.534Z,9.47
2018-12-06T05:15:56.085Z,8.57
2018-12-06T05:18:23.656Z,8.33
2018-12-06T05:20:51.198Z,7.90
2018-12-06T05:23:18.765Z,8.37
2018-12-06T05:25:46.313Z,8.67
2018-12-06T05:28:13.886Z,9.17
2018-12-06T05:30:41.433Z,9.30
2018-12-06T05:33:09.008Z,8.30
2018-12-06T05:35:36.558Z,8.90
2018-12-06T05:38:04.132Z,8.63
2018-12-06T05:40:31.685Z,10.43
2018-12-06T05:42:59.261Z,9.73
2018-12-06T05:45:27.056Z,10.23
2018-12-06T05:47:54.624Z,9.27
2018-12-06T05:50:22.176Z,9.47
2018-12-06T05:52:49.757Z,10.17
2018-12-06T05:55:17.324Z,10.20
2018-12-06T05:57:44.892Z,10.20
2018-12-06T06:00:12.767Z,8.57
2018-12-06T06:02:40.328Z,9.23
2018-12-06T06:05:07.977Z,9.17
2018-12-06T06:07:35.528Z,9.20
2018-12-06T06:10:03.356Z,9.00
2018-12-06T06:12:30.909Z,9.97
2018-12-06T06:14:58.481Z,9.93
2018-12-06T06:17:26.272Z,8.80
2018-12-06T06:19:53.857Z,9.03
2018-12-06T06:22:21.730Z,8.70
2018-12-06T06:24:49.376Z,10.17
2018-12-06T06:27:16.937Z,10.17
2018-12-06T06:29:44.513Z,9.90
2018-12-06T06:32:12.061Z,10.20
2018-12-06T06:34:39.637Z,8.90
2018-12-06T06:37:07.189Z,9.83
2018-12-06T06:39:34.767Z,9.13
2018-12-06T06:42:02.317Z,9.30
2018-12-06T06:44:29.893Z,10.03
2018-12-06T06:46:57.449Z,9.70
2018-12-06T06:49:25.019Z,8.60
2018-12-06T06:51:52.585Z,8.90
2018-12-06T06:54:21.085Z,8.50
2018-12-06T06:56:48.641Z,9.00
2018-12-06T06:59:16.220Z,9.77
2018-12-06T07:01:43.770Z,8.90
2018-12-06T07:04:11.354Z,9.13
2018-12-06T07:06:38.905Z,9.03
2018-12-06T07:09:07.349Z,9.97
2018-12-06T07:11:35.365Z,8.80
2018-12-06T07:14:03.421Z,9.80
2018-12-06T07:16:30.972Z,10.27
2018-12-06T07:18:58.558Z,10.00
2018-12-06T07:21:26.126Z,10.27
2018-12-06T07:23:53.698Z,8.97
2018-12-06T07:26:21.248Z,10.27
2018-12-06T07:28:48.829Z,10.30
2018-12-06T07:31:16.386Z,10.90
2018-12-06T07:33:43.964Z,11.23
2018-12-06T07:36:11.519Z,11.20
2018-12-06T07:38:40.449Z,10.50
2018-12-06T07:41:08.013Z,11.10
2018-12-06T07:43:35.569Z,11.20
2018-12-06T07:46:08.197Z,11.83
2018-12-06T07:48:35.813Z,11.10
2018-12-06T07:51:03.401Z,10.60
2018-12-06T07:53:31.200Z,11.90
2018-12-06T07:55:58.774Z,11.80
2018-12-06T07:58:26.329Z,11.60
2018-12-06T08:00:53.900Z,11.30
2018-12-06T08:03:21.460Z,10.37
2018-12-06T08:05:49.038Z,12.53
2018-12-06T08:08:16.584Z,12.23
2018-12-06T08:10:44.408Z,11.20
2018-12-06T08:13:11.974Z,10.40
2018-12-06T08:15:39.565Z,11.13
2018-12-06T08:18:07.136Z,11.10
2018-12-06T08:20:34.716Z,10.40
2018-12-06T08:23:02.286Z,11.73
2018-12-06T08:25:29.873Z,10.83
2018-12-06T08:27:57.428Z,11.27
2018-12-06T08:30:25.003Z,10.20
2018-12-06T08:32:52.566Z,10.03
2018-12-06T08:35:20.149Z,11.00
2018-12-06T08:37:47.720Z,11.60
2018-12-06T08:40:15.289Z,9.53
2018-12-06T08:42:45.866Z,9.10
2018-12-06T08:45:12.429Z,9.77
2018-12-06T08:47:39.980Z,8.03
2018-12-06T08:50:07.612Z,9.90
2018-12-06T08:52:35.165Z,9.73
2018-12-06T08:55:02.776Z,9.40
2018-12-06T08:57:30.324Z,9.00
2018-12-06T08:59:57.959Z,8.40
2018-12-06T09:02:25.572Z,7.50
2018-12-06T09:04:53.145Z,9.10
2018-12-06T09:07:20.766Z,8.70
2018-12-06T09:09:48.335Z,8.40
2018-12-06T09:12:15.888Z,8.80
2018-12-06T09:14:43.457Z,8.20
2018-12-06T09:17:11.013Z,8.93
2018-12-06T09:19:38.565Z,8.90
2018-12-06T09:22:06.135Z,8.60
2018-12-06T09:24:33.679Z,7.13
2018-12-06T09:27:01.554Z,8.90
2018-12-06T09:29:29.100Z,7.17
2018-12-06T09:31:56.674Z,7.50
2018-12-06T09:34:24.237Z,7.63
2018-12-06T09:36:52.926Z,7.10
2018-12-06T09:39:21.913Z,7.93
2018-12-06T09:41:49.476Z,8.00
2018-12-06T09:44:17.037Z,6.67
2018-12-06T09:46:44.713Z,7.40
2018-12-06T09:49:12.271Z,7.10
2018-12-06T09:51:40.226Z,7.73
2018-12-06T09:54:07.785Z,7.43
2018-12-06T09:56:36.057Z,7.53
2018-12-06T09:59:03.960Z,6.33
2018-12-06T10:01:31.542Z,7.87
2018-12-06T10:03:59.314Z,8.23
2018-12-06T10:06:27.128Z,8.23
2018-12-06T10:08:54.964Z,8.37
2018-12-06T10:11:22.549Z,7.70
2018-12-06T10:13:50.420Z,7.83
2018-12-06T10:16:17.988Z,8.40
2018-12-06T10:18:45.843Z,8.47
2018-12-06T10:21:13.740Z,9.40
2018-12-06T10:23:42.153Z,9.93
2018-12-06T10:26:09.893Z,9.97
2018-12-06T10:28:37.724Z,8.53
2018-12-06T10:31:05.695Z,9.70
2018-12-06T10:33:33.253Z,8.63
2018-12-06T10:36:01.119Z,9.40
2018-12-06T10:38:29.601Z,8.87
2018-12-06T10:40:57.379Z,8.83
2018-12-06T10:43:25.027Z,7.27
2018-12-06T10:45:52.913Z,8.47
2018-12-06T10:48:20.469Z,6.57
2018-12-06T10:50:48.424Z,7.27
2018-12-06T10:53:15.968Z,7.23
2018-12-06T10:55:43.851Z,7.60
2018-12-06T10:58:11.405Z,8.20
2018-12-06T11:00:44.618Z,7.50
2018-12-06T11:03:14.416Z,7.00
2018-12-06T11:05:41.960Z,6.73
2018-12-06T11:08:09.751Z,7.50
2018-12-06T11:10:38.116Z,6.70
2018-12-06T11:13:05.684Z,6.37
2018-12-06T11:15:34.777Z,6.30
2018-12-06T11:18:02.354Z,6.40
2018-12-06T11:21:01.069Z,7.20
2018-12-06T11:23:28.894Z,6.70
2018-12-06T11:25:56.865Z,6.70
2018-12-06T11:28:24.779Z,5.90
2018-12-06T11:30:52.694Z,5.73
2018-12-06T11:33:21.049Z,6.50
2018-12-06T11:35:48.602Z,6.40
2018-12-06T11:38:16.171Z,5.47
2018-12-06T11:40:43.796Z,5.63
2018-12-06T11:43:11.626Z,4.90
2018-12-06T11:45:39.179Z,5.50
2018-12-06T11:48:07.053Z,4.63
2018-12-06T11:50:34.609Z,4.00
2018-12-06T11:53:02.193Z,4.43
2018-12-06T11:55:29.958Z,5.90
2018-12-06T11:57:57.733Z,5.43
2018-12-06T12:00:25.289Z,5.13
2018-12-06T12:02:53.225Z,5.63
2018-12-06T12:05:20.824Z,5.20
2018-12-06T12:07:48.732Z,4.50
2018-12-06T12:10:16.287Z,4.80
2018-12-06T12:12:43.860Z,5.17
2018-12-06T12:15:11.647Z,5.03
2018-12-06T12:17:39.616Z,6.10
2018-12-06T12:20:07.169Z,6.97
2018-12-06T12:22:35.044Z,6.87
2018-12-06T12:25:02.603Z,6.83
2018-12-06T12:27:30.474Z,7.47
2018-12-06T12:29:58.029Z,7.10
2018-12-06T12:32:25.901Z,8.17
2018-12-06T12:34:53.681Z,6.80
2018-12-06T12:37:21.325Z,6.80
2018-12-06T12:39:49.210Z,6.63
2018-12-06T12:42:16.765Z,8.60
2018-12-06T12:44:44.545Z,7.60
2018-12-06T12:47:12.617Z,7.20
2018-12-06T12:49:40.193Z,7.70
2018-12-06T12:52:07.973Z,7.10
2018-12-06T12:54:35.549Z,6.53
2018-12-06T12:57:03.508Z,7.23
2018-12-06T12:59:31.080Z,6.70
2018-12-06T13:01:58.640Z,6.73
2018-12-06T13:04:26.433Z,5.10
2018-12-06T13:13:52.853Z,4.90
2018-12-06T13:16:20.679Z,4.00
2018-12-06T13:18:48.557Z,3.97
2018-12-06T13:21:16.104Z,3.30
2018-12-06T13:23:44.077Z,3.07
2018-12-06T13:26:11.838Z,2.80
2018-12-06T13:28:39.503Z,2.63
2018-12-06T13:31:07.129Z,2.90
2018-12-06T13:33:34.932Z,3.63
2018-12-06T13:36:03.925Z,2.57
2018-12-06T13:38:31.499Z,2.67
2018-12-06T13:40:59.052Z,2.70
2018-12-06T13:43:26.808Z,2.30
2018-12-06T13:45:54.582Z,2.30
2018-12-06T13:48:22.671Z,2.10
2018-12-06T13:50:50.660Z,2.10
2018-12-06T13:53:18.246Z,2.33
2018-12-06T13:55:45.801Z,1.50
2018-12-06T13:58:13.471Z,1.90
2018-12-06T14:00:41.709Z,2.10
2018-12-06T14:03:10.002Z,1.90
2018-12-06T14:05:37.612Z,1.40
2018-12-06T14:08:05.481Z,1.70
2018-12-06T14:10:33.049Z,1.60
2018-12-06T14:13:00.822Z,2.00
2018-12-06T14:15:28.385Z,1.63
2018-12-06T14:17:56.164Z,2.00
2018-12-06T14:20:23.735Z,2.23
2018-12-06T14:22:51.293Z,1.87
2018-12-06T14:25:19.182Z,2.03
2018-12-06T14:27:46.725Z,2.20
2018-12-06T14:30:14.365Z,2.03
2018-12-06T14:32:42.104Z,1.80
2018-12-06T14:35:10.003Z,1.87
2018-12-06T14:37:37.547Z,1.97
2018-12-06T14:40:06.525Z,2.13
2018-12-06T14:42:34.068Z,1.80
2018-12-06T14:45:01.953Z,2.27
2018-12-06T14:47:29.822Z,2.03
2018-12-06T14:49:57.709Z,2.60
2018-12-06T14:52:25.350Z,2.13
2018-12-06T14:54:53.246Z,2.50
2018-12-06T14:57:21.061Z,2.63
2018-12-06T14:59:48.746Z,2.07
2018-12-06T15:02:16.303Z,2.17
2018-12-06T15:04:43.865Z,1.80
2018-12-06T15:07:11.631Z,1.80
2018-12-06T15:09:39.603Z,1.57
2018-12-06T15:12:07.148Z,2.03
2018-12-06T15:14:34.722Z,1.80
2018-12-06T15:17:02.484Z,1.53
2018-12-06T15:19:30.370Z,1.90
2018-12-06T15:21:57.926Z,3.20
2018-12-06T15:24:25.883Z,2.20
2018-12-06T15:26:53.442Z,3.30
2018-12-06T15:29:21.311Z,4.57
2018-12-06T15:31:49.157Z,2.50
2018-12-06T15:34:16.736Z,3.20
2018-12-06T15:36:44.321Z,16.43
2018-12-06T15:39:11.877Z,6.60
2018-12-06T15:41:39.622Z,6.00
2018-12-06T15:44:07.176Z,11.30
2018-12-06T15:46:35.058Z,21.70
2018-12-06T15:49:03.021Z,10.30
2018-12-06T15:51:30.798Z,29.50
2018-12-06T15:53:58.349Z,4.13
2018-12-06T15:56:25.930Z,6.23
2018-12-06T15:58:53.801Z,2.57
2018-12-06T16:01:21.369Z,2.17
2018-12-06T16:03:48.929Z,2.10
2018-12-06T16:06:16.757Z,2.10
2018-12-06T16:08:45.149Z,2.03
2018-12-06T16:11:13.153Z,2.07
2018-12-06T16:13:40.701Z,2.00
2018-12-06T16:16:08.274Z,1.90
2018-12-06T16:18:36.040Z,2.63
2018-12-06T16:21:03.613Z,2.63
2018-12-06T16:23:31.177Z,3.00
2018-12-06T16:25:58.980Z,3.50
2018-12-06T16:28:26.529Z,3.40
2018-12-06T16:30:54.096Z,3.00
2018-12-06T16:33:21.654Z,2.20
2018-12-06T16:35:49.320Z,2.20
2018-12-06T16:38:16.941Z,2.63
2018-12-06T16:40:44.520Z,3.00
2018-12-06T16:43:12.605Z,3.43
2018-12-06T16:45:40.184Z,2.97
2018-12-06T16:48:07.741Z,3.00
2018-12-06T16:50:35.601Z,3.33
2018-12-06T16:53:03.158Z,3.20
2018-12-06T16:55:30.928Z,2.30
2018-12-06T16:57:58.478Z,3.43
2018-12-06T17:00:26.049Z,2.90
2018-12-06T17:02:53.913Z,2.73
2018-12-06T17:05:21.886Z,2.53
2018-12-06T17:07:49.434Z,2.57
2018-12-06T17:10:16.986Z,2.20
2018-12-06T17:12:44.554Z,2.23
2018-12-06T17:15:12.175Z,2.50
2018-12-06T17:17:39.818Z,2.60
2018-12-06T17:20:07.655Z,3.40
2018-12-06T17:22:35.622Z,3.53
2018-12-06T17:25:03.548Z,2.30
2018-12-06T17:27:31.117Z,2.67
2018-12-06T17:29:59.044Z,2.80
2018-12-06T17:32:27.009Z,2.77
2018-12-06T17:34:54.563Z,2.77
2018-12-06T17:37:22.133Z,3.50
2018-12-06T17:39:49.695Z,2.83
2018-12-06T17:42:17.781Z,3.03
2018-12-06T17:44:45.338Z,3.63
2018-12-06T17:47:12.916Z,6.43
2018-12-06T17:49:40.474Z,4.53
2018-12-06T17:52:08.389Z,4.00
2018-12-06T17:54:35.949Z,4.00
2018-12-06T17:57:03.520Z,4.40
2018-12-06T17:59:31.070Z,5.20
2018-12-06T18:01:58.980Z,6.33
2018-12-06T18:04:26.529Z,5.27
2018-12-06T18:06:54.092Z,5.50
2018-12-06T18:09:21.645Z,4.20
2018-12-06T18:11:49.221Z,2.77
2018-12-06T18:14:16.776Z,3.10
2018-12-06T18:16:44.352Z,3.13
2018-12-06T18:19:11.959Z,2.10
2018-12-06T18:21:39.534Z,2.40
2018-12-06T18:24:07.085Z,1.83
2018-12-06T18:26:34.673Z,2.00
2018-12-06T18:29:02.229Z,2.22
2018-12-06T18:31:29.801Z,2.33
2018-12-06T18:33:57.348Z,2.00
2018-12-06T18:36:24.917Z,2.50
2018-12-06T18:38:52.461Z,1.90
2018-12-06T18:41:20.032Z,2.20
2018-12-06T18:43:47.715Z,2.40
2018-12-06T18:46:15.265Z,2.97
2018-12-06T18:48:42.832Z,2.03
2018-12-06T18:51:10.383Z,2.67
2018-12-06T18:53:38.193Z,2.80
2018-12-06T18:56:05.737Z,2.07
2018-12-06T18:58:34.563Z,2.40
2018-12-06T19:01:02.390Z,2.07
2018-12-06T19:03:29.961Z,2.47
2018-12-06T19:05:57.536Z,2.30
2018-12-06T19:08:25.113Z,2.03
2018-12-06T19:10:52.672Z,2.43
2018-12-06T19:13:20.241Z,2.23
2018-12-06T19:15:47.829Z,1.77
2018-12-06T19:18:15.393Z,2.27
2018-12-06T19:20:42.940Z,2.20
2018-12-06T19:23:10.516Z,2.07
2018-12-06T19:25:38.089Z,2.50
2018-12-06T19:28:05.669Z,2.40
2018-12-06T19:30:33.280Z,3.53
2018-12-06T19:33:03.267Z,2.33
2018-12-06T19:35:30.409Z,2.37
2018-12-06T19:37:58.029Z,2.20
2018-12-06T19:40:25.592Z,2.20
2018-12-06T19:42:53.169Z,1.80
2018-12-06T19:45:21.247Z,2.50
2018-12-06T19:47:48.823Z,2.37
2018-12-06T19:50:16.368Z,2.67
2018-12-06T19:52:43.942Z,2.10
2018-12-06T19:55:11.565Z,2.53
2018-12-06T19:57:39.245Z,2.93
2018-12-06T20:00:08.401Z,2.60
2018-12-06T20:02:36.142Z,2.87
2018-12-06T20:05:04.565Z,2.87
2018-12-06T20:07:32.144Z,2.60
2018-12-06T20:10:00.655Z,2.63
2018-12-06T20:12:28.277Z,2.23
2018-12-06T20:14:55.829Z,2.63
2018-12-06T20:17:24.312Z,2.70
2018-12-06T20:19:51.889Z,2.17
2018-12-06T20:22:19.429Z,2.03
2018-12-06T20:24:47.246Z,2.40
2018-12-06T20:27:14.796Z,2.13
2018-12-06T20:29:42.366Z,2.70
2018-12-06T20:32:14.623Z,2.60
2018-12-06T20:34:39.501Z,2.63
2018-12-06T20:37:07.114Z,2.40
2018-12-06T20:39:34.682Z,2.10
2018-12-06T20:42:02.257Z,2.77
2018-12-06T20:44:29.837Z,2.43
2018-12-06T20:46:57.429Z,2.00
2018-12-06T20:49:25.030Z,2.10
2018-12-06T20:51:52.653Z,1.90
2018-12-06T20:54:20.233Z,1.53
2018-12-06T20:56:47.835Z,2.23
2018-12-06T20:59:15.417Z,1.73
2018-12-06T21:01:42.965Z,2.30
2018-12-06T21:04:10.538Z,2.10
2018-12-06T21:06:38.137Z,1.97
2018-12-06T21:09:05.800Z,2.40
2018-12-06T21:11:33.340Z,1.43
2018-12-06T21:14:00.906Z,1.97
2018-12-06T21:16:28.468Z,1.63
2018-12-06T21:18:56.041Z,1.90
2018-12-06T21:21:23.589Z,2.90
2018-12-06T21:23:51.161Z,2.13
2018-12-06T21:26:18.801Z,1.50
2018-12-06T21:28:46.366Z,1.80
2018-12-06T21:31:13.909Z,1.60
2018-12-06T21:33:41.490Z,1.93
2018-12-06T21:36:09.028Z,3.30
2018-12-06T21:38:36.607Z,3.33
2018-12-06T21:41:04.150Z,3.73
2018-12-06T21:43:31.735Z,4.43
2018-12-06T21:45:59.287Z,3.10
2018-12-06T21:48:26.848Z,3.77
2018-12-06T21:50:54.433Z,2.20
2018-12-06T21:53:23.677Z,1.60
2018-12-06T21:55:51.476Z,2.60
2018-12-06T21:58:19.025Z,1.63
2018-12-06T22:00:46.604Z,2.60
2018-12-06T22:03:14.158Z,2.77
2018-12-06T22:05:42.433Z,1.77
2018-12-06T22:08:09.997Z,2.43
2018-12-06T22:10:37.704Z,2.13
2018-12-06T22:13:05.356Z,2.60
2018-12-06T22:15:32.937Z,2.87
2018-12-06T22:18:00.476Z,1.97
2018-12-06T22:20:28.053Z,2.73
2018-12-06T22:22:55.602Z,2.00
2018-12-06T22:25:23.173Z,2.20
2018-12-06T22:27:50.741Z,1.93
2018-12-06T22:30:18.305Z,2.60
2018-12-06T22:32:45.844Z,3.63
2018-12-06T22:35:13.480Z,3.67
2018-12-06T22:37:41.028Z,2.97
2018-12-06T22:40:08.610Z,2.90
2018-12-06T22:42:36.265Z,2.17
2018-12-06T22:45:13.148Z,2.27
2018-12-06T22:47:40.698Z,2.70
2018-12-06T22:50:08.269Z,1.80
2018-12-06T22:52:35.816Z,2.63
2018-12-06T22:55:03.857Z,2.67
2018-12-06T22:57:31.405Z,2.13
2018-12-06T22:59:58.983Z,1.67
2018-12-06T23:02:26.607Z,2.27
2018-12-06T23:04:54.350Z,1.93
2018-12-06T23:07:21.888Z,1.83
2018-12-06T23:09:49.465Z,2.10
2018-12-06T23:12:17.080Z,2.13
2018-12-06T23:14:44.662Z,2.60
2018-12-06T23:17:12.221Z,1.60
2018-12-06T23:19:39.784Z,1.93
2018-12-06T23:22:07.338Z,1.53
2018-12-06T23:24:34.912Z,2.57
2018-12-06T23:27:02.473Z,1.50
2018-12-06T23:29:30.025Z,2.03
2018-12-06T23:31:57.597Z,1.50
2018-12-06T23:34:25.150Z,1.63
2018-12-06T23:36:52.725Z,1.40
2018-12-06T23:39:20.281Z,1.77
2018-12-06T23:41:47.853Z,1.30
2018-12-06T23:44:15.403Z,1.33
2018-12-06T23:46:42.978Z,1.40
2018-12-06T23:49:11.036Z,1.30
2018-12-06T23:51:38.672Z,1.63
2018-12-06T23:54:06.214Z,1.10
2018-12-06T23:56:33.783Z,2.07
2018-12-06T23:59:01.334Z,1.00
